createdAt,value
2017-06-11T00:00:56.253Z,12.3
2017-06-11T00:02:03.561Z,12.3
2017-06-11T00:03:11.041Z,12.3
2017-06-11T00:04:18.553Z,12.3
2017-06-11T00:05:26.040Z,12.2
2017-06-11T00:06:33.199Z,12.2
2017-06-11T00:07:41.216Z,12.2
2017-06-11T00:08:48.698Z,12.2
2017-06-11T00:09:56.184Z,12.2
2017-06-11T00:11:03.665Z,12.2
2017-06-11T00:12:11.149Z,12.2
2017-06-11T00:13:18.932Z,12.2
2017-06-11T00:14:26.419Z,12.2
2017-06-11T00:15:33.903Z,12.2
2017-06-11T00:16:41.387Z,12.2
2017-06-11T00:17:48.210Z,12.2
2017-06-11T00:18:55.991Z,12.2
2017-06-11T00:20:03.148Z,12.2
2017-06-11T00:21:10.635Z,12.1
2017-06-11T00:22:18.115Z,12.2
2017-06-11T00:23:25.595Z,12.1
2017-06-11T00:24:33.375Z,12.1
2017-06-11T00:25:40.858Z,12.1
2017-06-11T00:26:48.343Z,12.1
2017-06-11T00:27:55.828Z,12.1
2017-06-11T00:29:03.313Z,12.1
2017-06-11T00:30:11.096Z,12.1
2017-06-11T00:31:18.582Z,12
2017-06-11T00:32:26.063Z,12
2017-06-11T00:33:33.549Z,12
2017-06-11T00:34:40.699Z,12
2017-06-11T00:35:48.486Z,12
2017-06-11T00:36:55.966Z,12
2017-06-11T00:38:03.443Z,12
2017-06-11T00:39:10.929Z,12
2017-06-11T00:40:18.432Z,11.9
2017-06-11T00:41:26.218Z,11.9
2017-06-11T00:42:33.701Z,11.9
2017-06-11T00:43:41.181Z,11.8
2017-06-11T00:44:48.666Z,11.8
2017-06-11T00:45:56.146Z,11.9
2017-06-11T00:47:03.926Z,11.9
2017-06-11T00:48:11.414Z,11.9
2017-06-11T00:49:18.893Z,11.9
2017-06-11T00:50:26.378Z,11.9
2017-06-11T00:51:33.867Z,11.9
2017-06-11T00:52:41.649Z,11.9
2017-06-11T00:53:49.132Z,11.9
2017-06-11T00:54:56.620Z,11.8
2017-06-11T00:56:04.109Z,11.9
2017-06-11T00:57:11.590Z,11.9
2017-06-11T00:58:19.036Z,11.9
2017-06-11T00:59:26.521Z,11.8
2017-06-11T01:00:34.006Z,11.8
2017-06-11T01:01:41.489Z,11.8
2017-06-11T01:02:48.645Z,11.7
2017-06-11T01:03:56.435Z,11.7
2017-06-11T01:05:03.922Z,11.8
2017-06-11T01:06:11.402Z,11.8
2017-06-11T01:07:18.225Z,11.7
2017-06-11T01:08:25.728Z,11.7
2017-06-11T01:09:33.366Z,11.8
2017-06-11T01:10:40.844Z,11.8
2017-06-11T01:11:48.023Z,11.7
2017-06-11T01:12:55.510Z,11.7
2017-06-11T01:14:03.006Z,11.7
2017-06-11T01:15:10.636Z,11.7
2017-06-11T01:16:18.125Z,11.7
2017-06-11T01:17:25.622Z,11.7
2017-06-11T01:18:33.104Z,11.6
2017-06-11T01:19:40.606Z,11.6
2017-06-11T01:20:47.910Z,11.6
2017-06-11T01:21:55.398Z,11.6
2017-06-11T01:23:02.250Z,11.6
2017-06-11T01:24:09.390Z,11.6
2017-06-11T01:25:16.873Z,11.6
2017-06-11T01:26:24.526Z,11.6
2017-06-11T01:27:32.010Z,11.5
2017-06-11T01:28:39.488Z,11.5
2017-06-11T01:29:46.971Z,11.5
2017-06-11T01:30:54.451Z,11.5
2017-06-11T01:32:02.080Z,11.5
2017-06-11T01:33:09.232Z,11.5
2017-06-11T01:34:16.718Z,11.5
2017-06-11T01:35:24.202Z,11.5
2017-06-11T01:36:31.357Z,11.5
2017-06-11T01:37:38.992Z,11.5
2017-06-11T01:39:01.055Z,11.4
2017-06-11T01:40:08.224Z,11.4
2017-06-11T01:41:15.702Z,11.4
2017-06-11T01:42:23.185Z,11.5
2017-06-11T01:43:30.665Z,11.5
2017-06-11T01:44:38.154Z,11.4
2017-06-11T01:45:45.639Z,11.4
2017-06-11T01:46:53.129Z,11.4
2017-06-11T01:48:00.621Z,11.3
2017-06-11T01:49:08.404Z,11.3
2017-06-11T01:50:15.885Z,11.3
2017-06-11T01:51:23.360Z,11.3
2017-06-11T01:52:30.841Z,11.3
2017-06-11T01:53:38.324Z,11.3
2017-06-11T01:54:45.955Z,11.3
2017-06-11T01:55:53.434Z,11.3
2017-06-11T01:57:00.923Z,11.3
2017-06-11T01:58:08.401Z,11.3
2017-06-11T01:59:15.881Z,11.3
2017-06-11T02:00:23.517Z,11.3
2017-06-11T02:01:30.674Z,11.3
2017-06-11T02:02:38.157Z,11.3
2017-06-11T02:03:45.643Z,11.2
2017-06-11T02:04:53.124Z,11.2
2017-06-11T02:06:00.756Z,11.2
2017-06-11T02:07:08.239Z,11.3
2017-06-11T02:08:15.727Z,11.3
2017-06-11T02:09:22.880Z,11.2
2017-06-11T02:10:30.027Z,11.2
2017-06-11T02:11:37.332Z,11.2
2017-06-11T02:12:44.815Z,11.1
2017-06-11T02:13:52.297Z,11.1
2017-06-11T02:14:59.781Z,11.1
2017-06-11T02:16:07.261Z,11.1
2017-06-11T02:17:14.895Z,11.1
2017-06-11T02:18:22.383Z,11.1
2017-06-11T02:19:29.862Z,11.1
2017-06-11T02:20:37.350Z,11
2017-06-11T02:21:44.835Z,11
2017-06-11T02:22:52.464Z,11
2017-06-11T02:23:59.951Z,11
2017-06-11T02:25:07.425Z,11
2017-06-11T02:26:14.909Z,11
2017-06-11T02:27:22.397Z,11
2017-06-11T02:28:30.275Z,11
2017-06-11T02:29:37.759Z,11
2017-06-11T02:30:45.240Z,11
2017-06-11T02:31:52.721Z,11
2017-06-11T02:33:00.221Z,11
2017-06-11T02:34:07.679Z,11
2017-06-11T02:35:14.837Z,11
2017-06-11T02:36:22.319Z,11
2017-06-11T02:37:29.473Z,11
2017-06-11T02:38:36.958Z,11
2017-06-11T02:39:44.735Z,11
2017-06-11T02:40:51.887Z,11
2017-06-11T02:41:59.376Z,11
2017-06-11T02:43:06.864Z,11
2017-06-11T02:44:14.595Z,10.9
2017-06-11T02:45:22.366Z,11
2017-06-11T02:46:29.851Z,10.9
2017-06-11T02:47:37.334Z,10.9
2017-06-11T02:48:44.819Z,11
2017-06-11T02:49:52.317Z,11
2017-06-11T02:50:59.779Z,11
2017-06-11T02:52:07.269Z,10.9
2017-06-11T02:53:14.750Z,10.9
2017-06-11T02:54:21.898Z,10.8
2017-06-11T02:55:29.387Z,10.9
2017-06-11T02:56:37.171Z,10.9
2017-06-11T02:57:44.649Z,10.9
2017-06-11T02:58:52.132Z,10.8
2017-06-11T02:59:59.613Z,10.9
2017-06-11T03:01:07.100Z,10.8
2017-06-11T03:02:14.557Z,10.8
2017-06-11T03:03:22.037Z,10.8
2017-06-11T03:04:29.519Z,10.8
2017-06-11T03:05:37.006Z,10.9
2017-06-11T03:06:44.488Z,10.9
2017-06-11T03:07:51.938Z,10.9
2017-06-11T03:08:59.423Z,10.9
2017-06-11T03:10:06.904Z,10.9
2017-06-11T03:11:14.056Z,10.9
2017-06-11T03:12:21.534Z,10.8
2017-06-11T03:13:29.326Z,10.8
2017-06-11T03:14:36.813Z,10.8
2017-06-11T03:15:43.965Z,10.8
2017-06-11T03:16:51.465Z,10.8
2017-06-11T03:17:58.946Z,10.8
2017-06-11T03:19:06.394Z,10.7
2017-06-11T03:20:13.872Z,10.8
2017-06-11T03:21:21.347Z,10.7
2017-06-11T03:22:28.830Z,10.7
2017-06-11T03:23:36.319Z,10.7
2017-06-11T03:24:43.947Z,10.7
2017-06-11T03:25:51.430Z,10.7
2017-06-11T03:26:58.912Z,10.7
2017-06-11T03:28:06.059Z,10.7
2017-06-11T03:29:13.545Z,10.7
2017-06-11T03:30:21.176Z,10.7
2017-06-11T03:31:28.687Z,10.7
2017-06-11T03:32:35.850Z,10.7
2017-06-11T03:33:43.335Z,10.7
2017-06-11T03:34:50.816Z,10.7
2017-06-11T03:35:58.472Z,10.7
2017-06-11T03:37:05.951Z,10.7
2017-06-11T03:38:13.431Z,10.7
2017-06-11T03:39:20.910Z,10.7
2017-06-11T03:40:28.381Z,10.7
2017-06-11T03:41:36.022Z,10.7
2017-06-11T03:42:43.501Z,10.7
2017-06-11T03:43:50.887Z,10.7
2017-06-11T03:44:58.374Z,10.7
2017-06-11T03:46:05.859Z,10.8
2017-06-11T03:47:13.499Z,10.8
2017-06-11T03:48:20.986Z,10.8
2017-06-11T03:49:28.467Z,10.8
2017-06-11T03:50:35.953Z,10.8
2017-06-11T03:51:43.438Z,10.8
2017-06-11T03:52:50.744Z,10.8
2017-06-11T03:53:58.229Z,10.8
2017-06-11T03:55:05.724Z,10.8
2017-06-11T03:56:13.205Z,10.8
2017-06-11T03:57:20.684Z,10.8
2017-06-11T03:58:28.318Z,10.9
2017-06-11T03:59:35.804Z,10.9
2017-06-11T04:00:43.287Z,10.9
2017-06-11T04:01:50.777Z,10.8
2017-06-11T04:02:58.261Z,10.8
2017-06-11T04:04:05.894Z,10.8
2017-06-11T04:05:13.377Z,10.8
2017-06-11T04:06:35.439Z,10.8
2017-06-11T04:07:42.920Z,10.8
2017-06-11T04:08:50.404Z,10.9
2017-06-11T04:09:58.032Z,10.9
2017-06-11T04:11:05.518Z,10.8
2017-06-11T04:12:12.994Z,10.9
2017-06-11T04:13:20.474Z,10.9
2017-06-11T04:14:27.956Z,10.9
2017-06-11T04:15:35.590Z,10.9
2017-06-11T04:16:42.740Z,10.9
2017-06-11T04:17:50.225Z,10.9
2017-06-11T04:18:57.727Z,10.9
2017-06-11T04:20:05.218Z,11
2017-06-11T04:21:12.847Z,10.9
2017-06-11T04:22:20.328Z,10.9
2017-06-11T04:23:27.814Z,11
2017-06-11T04:24:34.962Z,11
2017-06-11T04:25:42.123Z,11.1
2017-06-11T04:26:49.751Z,11.1
2017-06-11T04:27:57.230Z,11.1
2017-06-11T04:29:04.713Z,11.1
2017-06-11T04:30:12.199Z,11.2
2017-06-11T04:31:19.680Z,11.2
2017-06-11T04:32:27.315Z,11.2
2017-06-11T04:33:34.791Z,11.2
2017-06-11T04:34:42.278Z,11.2
2017-06-11T04:35:49.755Z,11.2
2017-06-11T04:36:57.242Z,11.3
2017-06-11T04:38:04.551Z,11.3
2017-06-11T04:39:12.035Z,11.3
2017-06-11T04:40:19.513Z,11.3
2017-06-11T04:41:26.665Z,11.4
2017-06-11T04:42:34.154Z,11.4
2017-06-11T04:43:41.450Z,11.4
2017-06-11T04:44:48.932Z,11.4
2017-06-11T04:45:56.418Z,11.4
2017-06-11T04:47:03.900Z,11.5
2017-06-11T04:48:11.381Z,11.5
2017-06-11T04:49:19.012Z,11.6
2017-06-11T04:50:26.501Z,11.6
2017-06-11T04:51:34.006Z,11.7
2017-06-11T04:52:41.493Z,11.8
2017-06-11T04:53:48.976Z,11.8
2017-06-11T04:54:56.618Z,11.8
2017-06-11T04:56:04.110Z,11.9
2017-06-11T04:57:11.604Z,12
2017-06-11T04:58:18.757Z,12
2017-06-11T04:59:26.239Z,12
2017-06-11T05:00:33.864Z,12
2017-06-11T05:01:41.355Z,12.1
2017-06-11T05:02:48.835Z,12.1
2017-06-11T05:03:56.317Z,12.2
2017-06-11T05:05:03.796Z,12.2
2017-06-11T05:06:11.098Z,12.2
2017-06-11T05:07:18.581Z,12.3
2017-06-11T05:08:26.067Z,12.3
2017-06-11T05:09:33.578Z,12.4
2017-06-11T05:10:41.070Z,12.5
2017-06-11T05:11:48.709Z,12.5
2017-06-11T05:12:56.185Z,12.6
2017-06-11T05:14:03.672Z,12.7
2017-06-11T05:15:11.151Z,12.8
2017-06-11T05:16:18.631Z,12.9
2017-06-11T05:17:26.268Z,13
2017-06-11T05:18:33.749Z,13.1
2017-06-11T05:19:41.237Z,13.2
2017-06-11T05:20:48.738Z,13.2
2017-06-11T05:21:56.218Z,13.4
2017-06-11T05:23:03.525Z,13.5
2017-06-11T05:24:10.906Z,13.6
2017-06-11T05:25:18.392Z,13.6
2017-06-11T05:26:25.865Z,13.8
2017-06-11T05:27:33.349Z,13.9
2017-06-11T05:28:40.646Z,14
2017-06-11T05:29:47.806Z,14.2
2017-06-11T05:30:55.288Z,14.3
2017-06-11T05:32:02.773Z,14.4
2017-06-11T05:33:09.600Z,14.6
2017-06-11T05:34:16.920Z,14.7
2017-06-11T05:35:24.409Z,14.8
2017-06-11T05:36:31.882Z,15
2017-06-11T05:37:39.368Z,15.2
2017-06-11T05:38:46.854Z,15.3
2017-06-11T05:39:54.487Z,15.5
2017-06-11T05:41:01.965Z,15.6
2017-06-11T05:42:09.451Z,15.9
2017-06-11T05:43:16.956Z,16
2017-06-11T05:44:24.109Z,16.2
2017-06-11T05:45:31.746Z,16.3
2017-06-11T05:46:39.236Z,16.4
2017-06-11T05:47:46.721Z,16.7
2017-06-11T05:48:54.205Z,16.8
2017-06-11T05:50:01.695Z,16.9
2017-06-11T05:51:09.330Z,17.1
2017-06-11T05:52:16.813Z,17.3
2017-06-11T05:53:24.298Z,17.4
2017-06-11T05:54:31.792Z,17.5
2017-06-11T05:55:39.273Z,17.7
2017-06-11T05:56:47.054Z,17.9
2017-06-11T05:57:54.542Z,18
2017-06-11T05:59:02.023Z,18
2017-06-11T06:00:09.513Z,18.1
2017-06-11T06:01:16.999Z,18.4
2017-06-11T06:02:24.782Z,18.6
2017-06-11T06:03:31.601Z,18.4
2017-06-11T06:04:39.090Z,18.5
2017-06-11T06:05:46.585Z,18.5
2017-06-11T06:06:53.767Z,18.7
2017-06-11T06:08:01.550Z,18.9
2017-06-11T06:09:09.042Z,19.1
2017-06-11T06:10:16.187Z,19.2
2017-06-11T06:11:23.676Z,19.3
2017-06-11T06:12:30.825Z,19.2
2017-06-11T06:13:37.986Z,19.4
2017-06-11T06:14:45.481Z,19.6
2017-06-11T06:15:52.970Z,19.5
2017-06-11T06:17:00.451Z,19.5
2017-06-11T06:18:08.023Z,19.6
2017-06-11T06:19:15.838Z,19.7
2017-06-11T06:20:23.333Z,19.9
2017-06-11T06:21:30.884Z,20
2017-06-11T06:22:38.379Z,20.2
2017-06-11T06:23:45.869Z,20.4
2017-06-11T06:24:53.658Z,20.6
2017-06-11T06:26:01.153Z,20.7
2017-06-11T06:27:08.652Z,20.9
2017-06-11T06:28:15.817Z,20.9
2017-06-11T06:29:23.302Z,21.1
2017-06-11T06:30:31.089Z,21.3
2017-06-11T06:31:38.580Z,21.5
2017-06-11T06:32:46.067Z,21.5
2017-06-11T06:33:53.549Z,21.5
2017-06-11T06:35:01.047Z,21.4
2017-06-11T06:36:08.838Z,21.6
2017-06-11T06:37:16.333Z,21.6
2017-06-11T06:38:23.820Z,21.4
2017-06-11T06:39:31.314Z,21.3
2017-06-11T06:40:38.806Z,21.2
2017-06-11T06:41:46.612Z,21.5
2017-06-11T06:42:54.099Z,21.5
2017-06-11T06:44:01.273Z,21.7
2017-06-11T06:45:08.757Z,21.8
2017-06-11T06:46:16.251Z,22.1
2017-06-11T06:47:23.747Z,22.4
2017-06-11T06:48:30.922Z,22.8
2017-06-11T06:49:38.417Z,23
2017-06-11T06:50:45.912Z,23.2
2017-06-11T06:51:53.064Z,23.3
2017-06-11T06:53:00.231Z,23.3
2017-06-11T06:54:07.728Z,23.2
2017-06-11T06:55:14.896Z,23.4
2017-06-11T06:56:22.396Z,23.6
2017-06-11T06:57:29.888Z,23.7
2017-06-11T06:58:37.364Z,23.9
2017-06-11T06:59:44.866Z,23.7
2017-06-11T07:00:52.383Z,23.8
2017-06-11T07:01:59.879Z,23.8
2017-06-11T07:03:07.368Z,23.9
2017-06-11T07:04:15.160Z,24.1
2017-06-11T07:05:22.773Z,24.1
2017-06-11T07:06:30.261Z,24
2017-06-11T07:07:37.752Z,24.1
2017-06-11T07:08:45.246Z,24.2
2017-06-11T07:09:53.034Z,24.5
2017-06-11T07:11:00.196Z,24.7
2017-06-11T07:12:07.357Z,24.8
2017-06-11T07:13:14.853Z,24.8
2017-06-11T07:14:22.008Z,24.8
2017-06-11T07:15:29.464Z,24.9
2017-06-11T07:16:36.954Z,25
2017-06-11T07:17:44.450Z,25.1
2017-06-11T07:18:51.614Z,25.3
2017-06-11T07:19:59.103Z,25.5
2017-06-11T07:21:06.891Z,25.4
2017-06-11T07:22:14.379Z,25.5
2017-06-11T07:23:21.877Z,25.6
2017-06-11T07:24:29.369Z,25.5
2017-06-11T07:25:36.862Z,25.3
2017-06-11T07:26:44.662Z,24.9
2017-06-11T07:27:52.147Z,24.9
2017-06-11T07:28:59.643Z,24.8
2017-06-11T07:30:07.130Z,24.5
2017-06-11T07:31:14.628Z,24.7
2017-06-11T07:32:21.792Z,24.7
2017-06-11T07:33:29.275Z,24.6
2017-06-11T07:34:36.438Z,24.6
2017-06-11T07:35:43.923Z,24.9
2017-06-11T07:36:51.083Z,25.1
2017-06-11T07:37:58.869Z,25.2
2017-06-11T07:39:06.368Z,25.1
2017-06-11T07:40:14.092Z,25.1
2017-06-11T07:41:21.584Z,25.2
2017-06-11T07:42:29.071Z,25.2
2017-06-11T07:43:36.857Z,25.2
2017-06-11T07:44:44.347Z,25.1
2017-06-11T07:45:51.849Z,25.2
2017-06-11T07:46:59.343Z,25.3
2017-06-11T07:48:06.840Z,25.4
2017-06-11T07:49:14.632Z,25.1
2017-06-11T07:50:22.126Z,25
2017-06-11T07:51:29.620Z,24.9
2017-06-11T07:52:37.116Z,25.1
2017-06-11T07:53:44.618Z,25.1
2017-06-11T07:54:52.313Z,25.1
2017-06-11T07:55:59.808Z,24.7
2017-06-11T07:57:07.305Z,24.7
2017-06-11T07:58:14.803Z,25
2017-06-11T07:59:22.297Z,25.2
2017-06-11T08:00:29.934Z,25.4
2017-06-11T08:01:37.429Z,25.3
2017-06-11T08:02:59.507Z,25.5
2017-06-11T08:04:07.005Z,25.9
2017-06-11T08:05:14.495Z,25.9
2017-06-11T08:06:21.810Z,26.1
2017-06-11T08:07:29.305Z,26.4
2017-06-11T08:08:36.817Z,26.7
2017-06-11T08:09:44.296Z,26.5
2017-06-11T08:10:51.470Z,26.2
2017-06-11T08:11:59.113Z,26
2017-06-11T08:13:06.613Z,26
2017-06-11T08:14:14.102Z,25.9
2017-06-11T08:15:21.271Z,25.7
2017-06-11T08:16:28.766Z,25.7
2017-06-11T08:17:36.404Z,25.8
2017-06-11T08:18:43.903Z,26
2017-06-11T08:19:51.401Z,25.9
2017-06-11T08:20:58.896Z,26.1
2017-06-11T08:22:06.392Z,26.3
2017-06-11T08:23:14.031Z,26
2017-06-11T08:24:21.520Z,26
2017-06-11T08:25:29.013Z,26
2017-06-11T08:26:36.505Z,25.7
2017-06-11T08:27:43.672Z,25.8
2017-06-11T08:28:51.541Z,26
2017-06-11T08:29:59.034Z,26.1
2017-06-11T08:31:06.528Z,26.2
2017-06-11T08:32:14.020Z,26.4
2017-06-11T08:33:21.515Z,26.5
2017-06-11T08:34:29.157Z,26.7
2017-06-11T08:35:36.649Z,26.7
2017-06-11T08:36:44.145Z,26.9
2017-06-11T08:37:51.635Z,27.2
2017-06-11T08:38:58.802Z,27.2
2017-06-11T08:40:06.448Z,27.1
2017-06-11T08:41:13.613Z,26.9
2017-06-11T08:42:21.106Z,27
2017-06-11T08:43:28.601Z,26.7
2017-06-11T08:44:36.095Z,26.6
2017-06-11T08:45:43.737Z,26.6
2017-06-11T08:46:51.225Z,26.8
2017-06-11T08:47:58.719Z,26.8
2017-06-11T08:49:06.212Z,26.8
2017-06-11T08:50:13.705Z,26.8
2017-06-11T08:51:21.349Z,27
2017-06-11T08:52:28.843Z,27.3
2017-06-11T08:53:36.008Z,27.4
2017-06-11T08:54:43.509Z,27.6
2017-06-11T08:55:51.001Z,27.7
2017-06-11T08:56:58.645Z,27.7
2017-06-11T08:58:06.132Z,27.7
2017-06-11T08:59:13.634Z,27.5
2017-06-11T09:00:20.791Z,27.2
2017-06-11T09:01:28.287Z,27.5
2017-06-11T09:02:36.077Z,27.5
2017-06-11T09:03:43.576Z,27.2
2017-06-11T09:04:51.079Z,27.2
2017-06-11T09:05:58.574Z,27.6
2017-06-11T09:07:06.054Z,27.5
2017-06-11T09:08:13.711Z,27.7
2017-06-11T09:09:21.201Z,28.2
2017-06-11T09:10:28.696Z,28.3
2017-06-11T09:11:36.199Z,28.3
2017-06-11T09:12:43.692Z,28.4
2017-06-11T09:13:51.329Z,28.4
2017-06-11T09:14:58.826Z,28.2
2017-06-11T09:16:06.321Z,28.3
2017-06-11T09:17:13.505Z,28.7
2017-06-11T09:18:21.000Z,29.1
2017-06-11T09:19:28.644Z,29.3
2017-06-11T09:20:36.139Z,28.8
2017-06-11T09:21:43.638Z,28.8
2017-06-11T09:22:51.145Z,28.8
2017-06-11T09:23:58.638Z,29
2017-06-11T09:25:06.283Z,29
2017-06-11T09:26:13.773Z,29.2
2017-06-11T09:27:21.265Z,29.1
2017-06-11T09:28:28.763Z,29
2017-06-11T09:29:36.265Z,29
2017-06-11T09:30:43.764Z,28.9
2017-06-11T09:31:51.260Z,29.4
2017-06-11T09:32:58.750Z,29.4
2017-06-11T09:34:06.246Z,29.3
2017-06-11T09:35:13.740Z,29
2017-06-11T09:36:21.533Z,28.7
2017-06-11T09:37:29.024Z,28.8
2017-06-11T09:38:36.525Z,29.2
2017-06-11T09:39:44.017Z,29.3
2017-06-11T09:40:51.520Z,29.3
2017-06-11T09:41:59.170Z,29.6
2017-06-11T09:43:06.665Z,30
2017-06-11T09:44:14.152Z,30.1
2017-06-11T09:45:21.641Z,30.1
2017-06-11T09:46:29.131Z,30.2
2017-06-11T09:47:36.776Z,30.3
2017-06-11T09:48:44.265Z,29.4
2017-06-11T09:49:51.783Z,29
2017-06-11T09:50:59.273Z,29.2
2017-06-11T09:52:06.774Z,29.1
2017-06-11T09:53:14.091Z,28.9
2017-06-11T09:54:21.588Z,28.8
2017-06-11T09:55:29.082Z,28.6
2017-06-11T09:56:36.246Z,28.9
2017-06-11T09:57:43.737Z,28.6
2017-06-11T09:58:51.534Z,28.5
2017-06-11T09:59:59.030Z,28.7
2017-06-11T10:01:06.526Z,29.2
2017-06-11T10:02:14.020Z,29.6
2017-06-11T10:03:21.517Z,29.7
2017-06-11T10:04:29.316Z,29.5
2017-06-11T10:05:36.807Z,29.2
2017-06-11T10:06:44.307Z,29.1
2017-06-11T10:07:51.813Z,29.3
2017-06-11T10:08:58.982Z,29.5
2017-06-11T10:10:06.153Z,29.7
2017-06-11T10:11:13.652Z,29.5
2017-06-11T10:12:21.149Z,29.4
2017-06-11T10:13:28.643Z,29.4
2017-06-11T10:14:36.144Z,29.3
2017-06-11T10:15:43.948Z,29.2
2017-06-11T10:16:51.440Z,29.2
2017-06-11T10:17:58.933Z,29.4
2017-06-11T10:19:06.435Z,29.6
2017-06-11T10:20:13.929Z,29.6
2017-06-11T10:21:21.726Z,29.8
2017-06-11T10:22:29.219Z,29.7
2017-06-11T10:23:36.713Z,29.9
2017-06-11T10:24:44.214Z,30.4
2017-06-11T10:25:51.707Z,30.3
2017-06-11T10:27:00.708Z,29.6
2017-06-11T10:28:08.202Z,29.1
2017-06-11T10:29:15.697Z,29.4
2017-06-11T10:30:22.531Z,29.5
2017-06-11T10:31:30.030Z,29.5
2017-06-11T10:32:37.527Z,29.4
2017-06-11T10:33:44.693Z,29.3
2017-06-11T10:34:52.185Z,29
2017-06-11T10:35:59.684Z,29
2017-06-11T10:37:07.180Z,29.3
2017-06-11T10:38:14.588Z,29.4
2017-06-11T10:39:21.751Z,29.4
2017-06-11T10:40:29.255Z,29.7
2017-06-11T10:41:36.979Z,30.1
2017-06-11T10:42:44.476Z,30.2
2017-06-11T10:43:52.227Z,30.2
2017-06-11T10:44:59.721Z,30.4
2017-06-11T10:46:07.216Z,30.1
2017-06-11T10:47:14.717Z,30
2017-06-11T10:48:22.221Z,30.1
2017-06-11T10:49:29.717Z,29.8
2017-06-11T10:50:37.211Z,29.3
2017-06-11T10:51:44.723Z,29
2017-06-11T10:52:52.224Z,28.8
2017-06-11T10:53:59.717Z,29
2017-06-11T10:55:07.465Z,29.2
2017-06-11T10:56:14.957Z,29.2
2017-06-11T10:57:22.457Z,29.6
2017-06-11T10:58:29.951Z,29.7
2017-06-11T10:59:37.441Z,29.6
2017-06-11T11:00:44.857Z,29.8
2017-06-11T11:01:52.359Z,30.2
2017-06-11T11:02:59.858Z,30.1
2017-06-11T11:04:07.358Z,29.9
2017-06-11T11:05:14.853Z,29.5
2017-06-11T11:06:22.498Z,29.6
2017-06-11T11:07:30.002Z,29.8
2017-06-11T11:08:37.496Z,30
2017-06-11T11:09:44.995Z,30.2
2017-06-11T11:10:52.488Z,30.4
2017-06-11T11:11:59.985Z,30.2
2017-06-11T11:13:07.496Z,29.8
2017-06-11T11:14:14.990Z,29.6
2017-06-11T11:15:22.495Z,29.6
2017-06-11T11:16:29.991Z,29.6
2017-06-11T11:17:38.996Z,29.4
2017-06-11T11:18:46.484Z,29.6
2017-06-11T11:19:53.983Z,29.8
2017-06-11T11:21:01.481Z,30.1
2017-06-11T11:22:08.974Z,30.6
2017-06-11T11:23:16.442Z,30.8
2017-06-11T11:24:23.280Z,30.7
2017-06-11T11:25:30.774Z,30.8
2017-06-11T11:26:38.274Z,30.4
2017-06-11T11:27:45.772Z,30
2017-06-11T11:28:53.570Z,30
2017-06-11T11:30:01.075Z,30.1
2017-06-11T11:31:08.571Z,30.4
2017-06-11T11:32:16.063Z,30.8
2017-06-11T11:33:23.558Z,30.9
2017-06-11T11:34:31.356Z,31.4
2017-06-11T11:35:38.850Z,31.6
2017-06-11T11:36:46.344Z,31.4
2017-06-11T11:37:53.848Z,31.4
2017-06-11T11:39:01.343Z,30.7
2017-06-11T11:40:09.139Z,30.3
2017-06-11T11:41:16.639Z,29.9
2017-06-11T11:42:24.132Z,29.8
2017-06-11T11:43:31.629Z,29.9
2017-06-11T11:44:39.130Z,30.1
2017-06-11T11:45:46.933Z,30.2
2017-06-11T11:46:54.102Z,30
2017-06-11T11:48:01.617Z,29.6
2017-06-11T11:49:08.791Z,29.8
2017-06-11T11:50:15.960Z,30.2
2017-06-11T11:51:23.457Z,30.7
2017-06-11T11:52:30.958Z,30.8
2017-06-11T11:53:38.120Z,31
2017-06-11T11:54:45.619Z,31.1
2017-06-11T11:55:53.117Z,30.9
2017-06-11T11:57:00.916Z,30.8
2017-06-11T11:58:08.414Z,30.8
2017-06-11T11:59:15.915Z,30.8
2017-06-11T12:00:23.410Z,30.9
2017-06-11T12:01:30.902Z,31
2017-06-11T12:02:38.365Z,30.6
2017-06-11T12:03:45.862Z,30.4
2017-06-11T12:04:53.032Z,30.4
2017-06-11T12:06:00.532Z,30.6
2017-06-11T12:07:08.252Z,30.6
2017-06-11T12:08:15.718Z,30.9
2017-06-11T12:09:23.219Z,30.7
2017-06-11T12:10:30.707Z,30.9
2017-06-11T12:11:38.205Z,31.2
2017-06-11T12:12:45.705Z,31.7
2017-06-11T12:13:53.204Z,32
2017-06-11T12:15:00.700Z,32.1
2017-06-11T12:16:08.202Z,31.7
2017-06-11T12:17:15.706Z,31.1
2017-06-11T12:18:23.523Z,31.1
2017-06-11T12:19:31.019Z,31.4
2017-06-11T12:20:38.510Z,31.4
2017-06-11T12:21:46.011Z,31.4
2017-06-11T12:22:53.505Z,31.2
2017-06-11T12:24:01.298Z,30.8
2017-06-11T12:25:08.707Z,31
2017-06-11T12:26:15.864Z,31.1
2017-06-11T12:27:23.361Z,31.3
2017-06-11T12:28:30.854Z,31.5
2017-06-11T12:29:38.653Z,31.3
2017-06-11T12:30:46.155Z,31.4
2017-06-11T12:31:52.988Z,31.8
2017-06-11T12:33:00.492Z,31.8
2017-06-11T12:34:07.984Z,31.6
2017-06-11T12:35:15.794Z,31.8
2017-06-11T12:36:22.960Z,31.8
2017-06-11T12:37:30.468Z,31.7
2017-06-11T12:38:37.962Z,31.7
2017-06-11T12:39:45.462Z,31.9
2017-06-11T12:40:52.966Z,32.4
2017-06-11T12:42:00.462Z,32.5
2017-06-11T12:43:07.962Z,32.1
2017-06-11T12:44:15.463Z,32.3
2017-06-11T12:45:22.959Z,32.5
2017-06-11T12:46:30.758Z,32.8
2017-06-11T12:47:38.263Z,32.9
2017-06-11T12:48:45.760Z,32.9
2017-06-11T12:49:53.267Z,32.5
2017-06-11T12:51:00.762Z,32.5
2017-06-11T12:52:08.559Z,32.3
2017-06-11T12:53:16.060Z,31.9
2017-06-11T12:54:23.553Z,31.6
2017-06-11T12:55:31.060Z,31.3
2017-06-11T12:56:38.563Z,31.2
2017-06-11T12:57:46.055Z,31.4
2017-06-11T12:58:53.574Z,31.6
2017-06-11T13:00:01.071Z,31.4
2017-06-11T13:01:08.575Z,31.4
2017-06-11T13:02:16.080Z,31.7
2017-06-11T13:03:24.108Z,31.5
2017-06-11T13:04:31.276Z,31.7
2017-06-11T13:05:38.444Z,31.7
2017-06-11T13:06:45.938Z,32.1
2017-06-11T13:07:53.435Z,32.3
2017-06-11T13:09:01.226Z,32.4
2017-06-11T13:10:08.734Z,32.4
2017-06-11T13:11:16.227Z,32.7
2017-06-11T13:12:23.412Z,32.6
2017-06-11T13:13:30.920Z,33
2017-06-11T13:14:38.386Z,33.1
2017-06-11T13:15:45.569Z,32.9
2017-06-11T13:16:53.076Z,33.1
2017-06-11T13:18:00.577Z,32.9
2017-06-11T13:19:08.079Z,32.7
2017-06-11T13:20:15.582Z,32.5
2017-06-11T13:21:23.076Z,32.5
2017-06-11T13:22:30.571Z,32.5
2017-06-11T13:23:38.067Z,32.4
2017-06-11T13:24:45.564Z,32.5
2017-06-11T13:25:53.366Z,32.5
2017-06-11T13:27:00.858Z,32.7
2017-06-11T13:28:08.354Z,32.7
2017-06-11T13:29:15.527Z,32.6
2017-06-11T13:30:23.021Z,32.7
2017-06-11T13:31:30.820Z,32.7
2017-06-11T13:32:38.322Z,32.7
2017-06-11T13:33:45.816Z,32.7
2017-06-11T13:34:53.311Z,33
2017-06-11T13:36:00.805Z,33.2
2017-06-11T13:37:08.171Z,33.3
2017-06-11T13:38:15.683Z,33.3
2017-06-11T13:39:23.183Z,33.1
2017-06-11T13:40:30.676Z,33
2017-06-11T13:41:38.175Z,33.2
2017-06-11T13:42:45.820Z,33.2
2017-06-11T13:43:53.342Z,33.1
2017-06-11T13:45:00.835Z,32.8
2017-06-11T13:46:08.333Z,32.5
2017-06-11T13:47:15.834Z,32.3
2017-06-11T13:48:23.482Z,32.4
2017-06-11T13:49:30.997Z,32.7
2017-06-11T13:50:38.491Z,33.1
2017-06-11T13:51:45.995Z,33.2
2017-06-11T13:52:53.488Z,33.4
2017-06-11T13:54:01.140Z,33.2
2017-06-11T13:55:08.639Z,33
2017-06-11T13:56:16.138Z,33.2
2017-06-11T13:57:23.634Z,33.2
2017-06-11T13:58:31.128Z,33
2017-06-11T13:59:38.790Z,32.8
2017-06-11T14:00:46.285Z,32.8
2017-06-11T14:01:53.782Z,32.9
2017-06-11T14:03:01.282Z,33
2017-06-11T14:04:08.451Z,33.3
2017-06-11T14:05:15.914Z,33.4
2017-06-11T14:06:23.082Z,33.3
2017-06-11T14:07:30.578Z,33.6
2017-06-11T14:08:38.081Z,33.4
2017-06-11T14:09:45.581Z,33.7
2017-06-11T14:10:53.382Z,34.1
2017-06-11T14:12:00.887Z,34.1
2017-06-11T14:13:08.381Z,34.2
2017-06-11T14:14:15.878Z,33.8
2017-06-11T14:15:23.051Z,33.9
2017-06-11T14:16:30.856Z,33.6
2017-06-11T14:17:38.350Z,33.3
2017-06-11T14:18:45.515Z,33
2017-06-11T14:19:53.016Z,32.7
2017-06-11T14:21:00.521Z,32.9
2017-06-11T14:22:08.008Z,33
2017-06-11T14:23:15.509Z,33.4
2017-06-11T14:24:23.005Z,33.4
2017-06-11T14:25:30.502Z,33.5
2017-06-11T14:26:38.304Z,33.4
2017-06-11T14:27:45.477Z,33.7
2017-06-11T14:28:52.977Z,33.8
2017-06-11T14:30:00.146Z,34.1
2017-06-11T14:31:07.643Z,34.3
2017-06-11T14:32:15.443Z,34.5
2017-06-11T14:33:22.949Z,34.3
2017-06-11T14:34:30.446Z,34.7
2017-06-11T14:35:37.967Z,34.8
2017-06-11T14:36:45.471Z,34.1
2017-06-11T14:37:53.269Z,33.9
2017-06-11T14:39:00.761Z,34.1
2017-06-11T14:40:08.259Z,34.4
2017-06-11T14:41:15.753Z,34.4
2017-06-11T14:42:23.254Z,34.3
2017-06-11T14:43:31.052Z,33.9
2017-06-11T14:44:38.546Z,33.8
2017-06-11T14:45:46.046Z,33.8
2017-06-11T14:46:53.553Z,33.5
2017-06-11T14:48:01.052Z,33.2
2017-06-11T14:49:08.220Z,33.4
2017-06-11T14:50:15.715Z,33.4
2017-06-11T14:51:22.552Z,33.5
2017-06-11T14:52:30.057Z,33.9
2017-06-11T14:53:37.562Z,33.7
2017-06-11T14:54:45.360Z,33.3
2017-06-11T14:55:52.860Z,33.2
2017-06-11T14:57:00.070Z,32.9
2017-06-11T14:58:07.725Z,32.3
2017-06-11T14:59:15.227Z,32.2
2017-06-11T15:00:23.022Z,32.4
2017-06-11T15:01:30.526Z,32.5
2017-06-11T15:02:38.031Z,32.2
2017-06-11T15:03:45.534Z,32.1
2017-06-11T15:04:52.707Z,32.1
2017-06-11T15:06:00.203Z,32.3